createdAt,value
2023-03-17T00:00:10.557Z,998.1
2023-03-17T00:01:26.694Z,998.1
2023-03-17T00:02:42.814Z,998.1
2023-03-17T00:03:58.974Z,998.1
2023-03-17T00:05:15.097Z,998.1
2023-03-17T00:06:31.243Z,998.1
2023-03-17T00:07:47.371Z,998.1
2023-03-17T00:09:03.493Z,998
2023-03-17T00:10:19.638Z,998
2023-03-17T00:11:35.789Z,998
2023-03-17T00:12:51.913Z,998
2023-03-17T00:14:08.043Z,998
2023-03-17T00:15:24.176Z,997.9
2023-03-17T00:16:40.316Z,997.9
2023-03-17T00:17:56.449Z,997.9
2023-03-17T00:19:12.592Z,997.9
2023-03-17T00:20:28.720Z,997.9
2023-03-17T00:21:44.860Z,997.9
2023-03-17T00:23:01.000Z,997.8
2023-03-17T00:24:17.132Z,997.8
2023-03-17T00:25:33.274Z,997.8
2023-03-17T00:26:49.400Z,997.8
2023-03-17T00:28:05.530Z,997.8
2023-03-17T00:29:21.681Z,997.8
2023-03-17T00:30:37.820Z,997.8
2023-03-17T00:31:54.006Z,997.8
2023-03-17T00:33:09.242Z,997.8
2023-03-17T00:34:24.457Z,997.8
2023-03-17T00:35:40.599Z,997.8
2023-03-17T00:36:56.730Z,997.8
2023-03-17T00:38:12.857Z,997.8
2023-03-17T00:39:29.003Z,997.8
2023-03-17T00:42:01.259Z,997.8
2023-03-17T00:43:17.399Z,997.8
2023-03-17T00:44:33.544Z,997.8
2023-03-17T00:45:49.689Z,997.7
2023-03-17T00:47:05.817Z,997.7
2023-03-17T00:48:21.941Z,997.7
2023-03-17T00:49:38.078Z,997.7
2023-03-17T00:50:54.224Z,997.7
2023-03-17T00:52:10.354Z,997.7
2023-03-17T00:53:26.501Z,997.7
2023-03-17T00:54:42.633Z,997.7
2023-03-17T00:55:58.758Z,997.7
2023-03-17T00:57:14.894Z,997.6
2023-03-17T00:58:31.046Z,997.6
2023-03-17T00:59:47.179Z,997.6
2023-03-17T01:01:03.313Z,997.6
2023-03-17T01:02:19.435Z,997.6
2023-03-17T01:03:35.571Z,997.5
2023-03-17T01:04:51.727Z,997.6
2023-03-17T01:06:07.915Z,997.5
2023-03-17T01:07:23.181Z,997.5
2023-03-17T01:08:39.373Z,997.6
2023-03-17T01:09:54.579Z,997.6
2023-03-17T01:11:10.695Z,997.6
2023-03-17T01:12:26.838Z,997.6
2023-03-17T01:13:42.964Z,997.5
2023-03-17T01:14:59.117Z,997.5
2023-03-17T01:16:15.250Z,997.5
2023-03-17T01:17:31.391Z,997.4
2023-03-17T01:18:47.507Z,997.4
2023-03-17T01:20:03.648Z,997.4
2023-03-17T01:21:19.793Z,997.5
2023-03-17T01:22:35.934Z,997.5
2023-03-17T01:23:52.071Z,997.5
2023-03-17T01:25:08.194Z,997.5
2023-03-17T01:26:24.339Z,997.5
2023-03-17T01:27:40.469Z,997.5
2023-03-17T01:28:56.619Z,997.5
2023-03-17T01:30:12.746Z,997.5
2023-03-17T01:31:28.877Z,997.5
2023-03-17T01:32:45.005Z,997.4
2023-03-17T01:34:01.165Z,997.3
2023-03-17T01:35:17.292Z,997.3
2023-03-17T01:36:33.426Z,997.3
2023-03-17T01:37:49.564Z,997.3
2023-03-17T01:39:05.698Z,997.3
2023-03-17T01:40:21.831Z,997.2
2023-03-17T01:41:38.019Z,997.3
2023-03-17T01:42:53.268Z,997.2
2023-03-17T01:44:08.471Z,997.2
2023-03-17T01:45:24.614Z,997.2
2023-03-17T01:46:40.749Z,997.2
2023-03-17T01:47:56.867Z,997.2
2023-03-17T01:49:13.016Z,997.2
2023-03-17T01:50:29.160Z,997.2
2023-03-17T01:51:45.278Z,997.1
2023-03-17T01:53:01.416Z,997.2
2023-03-17T01:54:17.551Z,997.1
2023-03-17T01:55:33.693Z,997.1
2023-03-17T01:56:49.841Z,997.2
2023-03-17T01:58:05.971Z,997.1
2023-03-17T01:59:22.109Z,997.1
2023-03-17T02:00:38.234Z,997.1
2023-03-17T02:01:54.364Z,997.1
2023-03-17T02:03:10.504Z,997.1
2023-03-17T02:04:26.649Z,997.1
2023-03-17T02:06:58.914Z,997.1
2023-03-17T02:08:15.047Z,997.1
2023-03-17T02:09:31.203Z,997
2023-03-17T02:10:47.335Z,997
2023-03-17T02:12:03.450Z,997
2023-03-17T02:13:19.599Z,996.9
2023-03-17T02:14:35.735Z,996.9
2023-03-17T02:15:51.930Z,997
2023-03-17T02:17:07.182Z,997
2023-03-17T02:18:22.387Z,997
2023-03-17T02:19:38.518Z,997
2023-03-17T02:20:54.646Z,997
2023-03-17T02:22:10.795Z,997
2023-03-17T02:23:26.920Z,997
2023-03-17T02:24:43.055Z,997
2023-03-17T02:25:59.198Z,997
2023-03-17T02:27:15.328Z,997
2023-03-17T02:28:31.463Z,997
2023-03-17T02:29:47.591Z,997
2023-03-17T02:31:03.729Z,997.1
2023-03-17T02:32:19.891Z,997
2023-03-17T02:33:36.009Z,997.1
2023-03-17T02:34:52.149Z,997.1
2023-03-17T02:36:08.287Z,997.1
2023-03-17T02:37:24.410Z,997.1
2023-03-17T02:38:40.556Z,997.1
2023-03-17T02:39:56.689Z,997.2
2023-03-17T02:41:12.835Z,997.1
2023-03-17T02:42:28.962Z,997.1
2023-03-17T02:43:45.091Z,997.1
2023-03-17T02:45:01.245Z,997
2023-03-17T02:46:17.369Z,997.1
2023-03-17T02:47:33.509Z,997.1
2023-03-17T02:48:49.636Z,997.1
2023-03-17T02:50:05.823Z,997.1
2023-03-17T02:51:21.075Z,997
2023-03-17T02:52:37.256Z,997
2023-03-17T02:53:52.474Z,997
2023-03-17T02:55:08.616Z,997
2023-03-17T02:57:40.873Z,996.9
2023-03-17T02:58:57.004Z,996.9
2023-03-17T03:00:13.134Z,996.9
2023-03-17T03:01:29.299Z,996.8
2023-03-17T03:02:45.416Z,996.8
2023-03-17T03:04:01.551Z,996.8
2023-03-17T03:05:17.683Z,996.8
2023-03-17T03:06:33.829Z,996.8
2023-03-17T03:07:49.967Z,996.8
2023-03-17T03:09:06.110Z,996.8
2023-03-17T03:10:22.239Z,996.8
2023-03-17T03:11:38.362Z,996.8
2023-03-17T03:12:54.510Z,996.7
2023-03-17T03:14:10.645Z,996.7
2023-03-17T03:15:26.780Z,996.8
2023-03-17T03:16:42.918Z,996.8
2023-03-17T03:17:59.046Z,996.7
2023-03-17T03:19:15.180Z,996.7
2023-03-17T03:20:31.337Z,996.8
2023-03-17T03:21:47.459Z,996.7
2023-03-17T03:23:03.604Z,996.7
2023-03-17T03:24:19.732Z,996.6
2023-03-17T03:25:35.930Z,996.7
2023-03-17T03:26:51.166Z,996.7
2023-03-17T03:28:06.364Z,996.8
2023-03-17T03:29:21.512Z,996.8
2023-03-17T03:30:37.660Z,996.8
2023-03-17T03:31:53.775Z,996.8
2023-03-17T03:33:09.908Z,996.9
2023-03-17T03:34:26.059Z,996.9
2023-03-17T03:35:42.189Z,996.9
2023-03-17T03:36:58.330Z,996.8
2023-03-17T03:38:14.460Z,996.9
2023-03-17T03:39:30.594Z,996.9
2023-03-17T03:40:46.725Z,996.9
2023-03-17T03:42:02.878Z,997
2023-03-17T03:43:19.007Z,997
2023-03-17T03:44:35.140Z,997
2023-03-17T03:45:51.283Z,997
2023-03-17T03:47:07.398Z,997
2023-03-17T03:48:23.548Z,997
2023-03-17T03:49:39.695Z,997
2023-03-17T03:50:55.831Z,997
2023-03-17T03:52:11.948Z,997
2023-03-17T03:53:28.087Z,997
2023-03-17T03:54:44.229Z,997.1
2023-03-17T03:56:00.358Z,997.1
2023-03-17T03:57:16.504Z,997
2023-03-17T03:58:32.637Z,997
2023-03-17T03:59:48.760Z,997
2023-03-17T04:01:04.911Z,997
2023-03-17T04:02:21.049Z,997
2023-03-17T04:03:37.180Z,997
2023-03-17T04:04:53.322Z,996.9
2023-03-17T04:06:09.453Z,996.9
2023-03-17T04:07:25.585Z,996.9
2023-03-17T04:08:41.725Z,997
2023-03-17T04:09:57.861Z,996.9
2023-03-17T04:11:13.986Z,997
2023-03-17T04:12:30.119Z,997
2023-03-17T04:13:46.282Z,996.9
2023-03-17T04:15:02.402Z,996.9
2023-03-17T04:16:18.592Z,996.8
2023-03-17T04:17:33.834Z,996.8
2023-03-17T04:18:49.052Z,996.8
2023-03-17T04:20:05.186Z,996.8
2023-03-17T04:21:21.319Z,996.8
2023-03-17T04:22:37.451Z,996.8
2023-03-17T04:23:53.594Z,996.8
2023-03-17T04:25:09.733Z,996.8
2023-03-17T04:26:25.859Z,996.8
2023-03-17T04:27:41.993Z,996.7
2023-03-17T04:28:58.121Z,996.8
2023-03-17T04:30:14.281Z,996.8
2023-03-17T04:31:30.397Z,996.8
2023-03-17T04:32:46.543Z,996.8
2023-03-17T04:34:02.680Z,996.8
2023-03-17T04:35:18.798Z,996.9
2023-03-17T04:36:34.950Z,996.8
2023-03-17T04:37:51.078Z,996.9
2023-03-17T04:39:07.211Z,996.9
2023-03-17T04:40:23.343Z,996.8
2023-03-17T04:41:39.485Z,996.8
2023-03-17T04:42:55.633Z,996.8
2023-03-17T04:44:11.771Z,996.9
2023-03-17T04:45:27.891Z,996.8
2023-03-17T04:46:44.022Z,996.8
2023-03-17T04:48:00.165Z,996.8
2023-03-17T04:49:16.315Z,996.8
2023-03-17T04:50:32.505Z,996.8
2023-03-17T04:51:47.750Z,996.8
2023-03-17T04:53:02.942Z,996.8
2023-03-17T04:54:19.081Z,996.8
2023-03-17T04:55:35.210Z,996.7
2023-03-17T04:56:51.354Z,996.8
2023-03-17T04:58:07.475Z,996.7
2023-03-17T04:59:23.627Z,996.7
2023-03-17T05:00:39.768Z,996.7
2023-03-17T05:01:55.887Z,996.7
2023-03-17T05:03:12.024Z,996.6
2023-03-17T05:04:28.152Z,996.7
2023-03-17T05:05:44.316Z,996.6
2023-03-17T05:07:00.434Z,996.6
2023-03-17T05:08:16.569Z,996.5
2023-03-17T05:09:32.701Z,996.5
2023-03-17T05:10:48.838Z,996.5
2023-03-17T05:12:04.987Z,996.5
2023-03-17T05:13:21.120Z,996.5
2023-03-17T05:14:37.259Z,996.4
2023-03-17T05:15:53.389Z,996.3
2023-03-17T05:17:09.516Z,996.3
2023-03-17T05:18:25.672Z,996.3
2023-03-17T05:19:41.793Z,996.3
2023-03-17T05:20:57.932Z,996.3
2023-03-17T05:22:14.063Z,996.3
2023-03-17T05:23:30.196Z,996.3
2023-03-17T05:24:46.408Z,996.3
2023-03-17T05:26:01.663Z,996.3
2023-03-17T05:27:17.865Z,996.4
2023-03-17T05:28:33.065Z,996.4
2023-03-17T05:29:49.196Z,996.4
2023-03-17T05:31:05.326Z,996.4
2023-03-17T05:32:21.466Z,996.4
2023-03-17T05:33:37.599Z,996.4
2023-03-17T05:34:53.732Z,996.4
2023-03-17T05:36:09.874Z,996.4
2023-03-17T05:37:26.006Z,996.4
2023-03-17T05:38:42.143Z,996.4
2023-03-17T05:39:58.284Z,996.4
2023-03-17T05:41:14.423Z,996.4
2023-03-17T05:42:30.563Z,996.3
2023-03-17T05:43:46.685Z,996.3
2023-03-17T05:45:02.825Z,996.3
2023-03-17T05:46:18.959Z,996.3
2023-03-17T05:47:35.101Z,996.3
2023-03-17T05:48:51.230Z,996.3
2023-03-17T05:50:07.362Z,996.2
2023-03-17T05:51:23.496Z,996.3
2023-03-17T05:52:39.624Z,996.3
2023-03-17T05:53:55.783Z,996.3
2023-03-17T05:55:11.909Z,996.3
2023-03-17T05:56:28.052Z,996.3
2023-03-17T05:57:44.174Z,996.3
2023-03-17T05:59:00.327Z,996.3
2023-03-17T06:00:16.526Z,996.3
2023-03-17T06:01:31.766Z,996.3
2023-03-17T06:02:46.967Z,996.3
2023-03-17T06:04:03.103Z,996.2
2023-03-17T06:05:19.234Z,996.2
2023-03-17T06:06:35.374Z,996.1
2023-03-17T06:07:51.510Z,996
2023-03-17T06:09:07.645Z,996
2023-03-17T06:10:23.779Z,996.1
2023-03-17T06:11:39.929Z,996.1
2023-03-17T06:12:56.050Z,996.1
2023-03-17T06:14:12.197Z,996.1
2023-03-17T06:15:28.313Z,996.1
2023-03-17T06:16:44.468Z,996.1
2023-03-17T06:18:00.595Z,996.1
2023-03-17T06:19:16.726Z,996.1
2023-03-17T06:20:32.857Z,996.1
2023-03-17T06:21:49.008Z,996.1
2023-03-17T06:23:05.152Z,996.2
2023-03-17T06:24:21.272Z,996.2
2023-03-17T06:25:37.409Z,996.2
2023-03-17T06:26:53.552Z,996.3
2023-03-17T06:28:09.669Z,996.2
2023-03-17T06:29:25.817Z,996.1
2023-03-17T06:30:41.968Z,996.1
2023-03-17T06:31:58.083Z,996.1
2023-03-17T06:33:14.232Z,996
2023-03-17T06:34:30.412Z,995.9
2023-03-17T06:35:45.646Z,995.9
2023-03-17T06:37:00.863Z,996
2023-03-17T06:38:16.995Z,995.9
2023-03-17T06:39:33.136Z,996
2023-03-17T06:40:49.271Z,996
2023-03-17T06:42:05.428Z,996.1
2023-03-17T06:43:21.546Z,996.1
2023-03-17T06:44:37.684Z,996.1
2023-03-17T06:45:53.823Z,996.1
2023-03-17T06:47:09.947Z,996.1
2023-03-17T06:48:26.082Z,996.1
2023-03-17T06:49:42.220Z,996
2023-03-17T06:50:58.358Z,996
2023-03-17T06:52:14.499Z,996.1
2023-03-17T06:53:30.634Z,996.1
2023-03-17T06:54:46.770Z,996.1
2023-03-17T06:56:02.896Z,996.2
2023-03-17T06:57:19.038Z,996.2
2023-03-17T06:58:35.177Z,996.3
2023-03-17T06:59:51.326Z,996.3
2023-03-17T07:01:07.454Z,996.3
2023-03-17T07:02:23.592Z,996.3
2023-03-17T07:03:39.713Z,996.3
2023-03-17T07:04:55.855Z,996.3
2023-03-17T07:06:12.001Z,996.2
2023-03-17T07:07:28.136Z,996.2
2023-03-17T07:08:44.324Z,996.2
2023-03-17T07:09:59.565Z,996.1
2023-03-17T07:11:15.000Z,996.2
2023-03-17T07:12:30.950Z,996.1
2023-03-17T07:13:47.088Z,996.1
2023-03-17T07:15:03.239Z,996.1
2023-03-17T07:16:19.367Z,996.1
2023-03-17T07:17:35.502Z,996.1
2023-03-17T07:18:51.644Z,996.1
2023-03-17T07:20:07.765Z,996.1
2023-03-17T07:21:23.923Z,996.1
2023-03-17T07:22:40.058Z,996.1
2023-03-17T07:23:56.193Z,996.1
2023-03-17T07:25:12.323Z,996.2
2023-03-17T07:26:28.456Z,996.2
2023-03-17T07:27:44.594Z,996.2
2023-03-17T07:29:00.736Z,996.2
2023-03-17T07:30:16.866Z,996.2
2023-03-17T07:31:32.995Z,996.2
2023-03-17T07:32:49.142Z,996.3
2023-03-17T07:34:05.278Z,996.3
2023-03-17T07:35:21.421Z,996.3
2023-03-17T07:36:37.550Z,996.2
2023-03-17T07:39:09.813Z,996.2
2023-03-17T07:40:25.960Z,996.2
2023-03-17T07:41:42.092Z,996.2
2023-03-17T07:42:58.237Z,996.1
2023-03-17T07:44:14.418Z,996.1
2023-03-17T07:45:30.620Z,996.1
2023-03-17T07:46:45.823Z,996.1
2023-03-17T07:48:01.943Z,996.1
2023-03-17T07:49:18.088Z,996.1
2023-03-17T07:50:34.219Z,996.1
2023-03-17T07:51:50.364Z,996.1
2023-03-17T07:53:06.502Z,996.1
2023-03-17T07:54:22.629Z,996
2023-03-17T07:55:38.767Z,996
2023-03-17T07:56:54.000Z,996
2023-03-17T07:58:11.042Z,996
2023-03-17T07:59:27.190Z,996
2023-03-17T08:00:43.321Z,996
2023-03-17T08:01:59.446Z,996
2023-03-17T08:03:15.578Z,996
2023-03-17T08:04:31.736Z,995.9
2023-03-17T08:05:47.869Z,995.9
2023-03-17T08:07:03.994Z,995.9
2023-03-17T08:08:20.129Z,995.9
2023-03-17T08:09:36.265Z,995.9
2023-03-17T08:10:52.409Z,995.9
2023-03-17T08:12:08.535Z,995.9
2023-03-17T08:13:24.687Z,995.9
2023-03-17T08:14:40.817Z,995.9
2023-03-17T08:15:56.935Z,995.8
2023-03-17T08:17:13.083Z,995.9
2023-03-17T08:18:29.277Z,995.9
2023-03-17T08:19:44.516Z,995.9
2023-03-17T08:20:59.731Z,995.9
2023-03-17T08:22:15.861Z,995.8
2023-03-17T08:23:32.002Z,995.9
2023-03-17T08:24:48.129Z,995.9
2023-03-17T08:26:04.273Z,995.8
2023-03-17T08:27:20.417Z,995.8
2023-03-17T08:28:36.537Z,995.9
2023-03-17T08:29:52.670Z,995.9
2023-03-17T08:31:08.817Z,995.8
2023-03-17T08:32:24.948Z,995.8
2023-03-17T08:33:41.091Z,995.8
2023-03-17T08:34:57.236Z,995.8
2023-03-17T08:36:13.361Z,995.8
2023-03-17T08:37:29.492Z,995.8
2023-03-17T08:38:45.631Z,995.8
2023-03-17T08:40:01.771Z,995.7
2023-03-17T08:41:17.916Z,995.7
2023-03-17T08:42:34.044Z,995.7
2023-03-17T08:43:50.180Z,995.7
2023-03-17T08:45:06.307Z,995.8
2023-03-17T08:46:22.469Z,995.7
2023-03-17T08:47:38.597Z,995.7
2023-03-17T08:48:54.717Z,995.7
2023-03-17T08:50:10.867Z,995.7
2023-03-17T08:51:26.990Z,995.6
2023-03-17T08:52:43.204Z,995.6
2023-03-17T08:53:58.426Z,995.6
2023-03-17T08:55:14.635Z,995.6
2023-03-17T08:56:29.827Z,995.6
2023-03-17T08:57:45.963Z,995.6
2023-03-17T08:59:02.100Z,995.6
2023-03-17T09:00:18.231Z,995.6
2023-03-17T09:01:34.368Z,995.6
2023-03-17T09:02:50.518Z,995.6
2023-03-17T09:04:06.656Z,995.6
2023-03-17T09:05:22.777Z,995.6
2023-03-17T09:06:38.915Z,995.6
2023-03-17T09:07:55.040Z,995.6
2023-03-17T09:09:11.196Z,995.6
2023-03-17T09:10:27.334Z,995.6
2023-03-17T09:11:43.466Z,995.6
2023-03-17T09:12:59.591Z,995.6
2023-03-17T09:14:15.729Z,995.6
2023-03-17T09:15:31.876Z,995.6
2023-03-17T09:16:48.022Z,995.6
2023-03-17T09:18:04.145Z,995.5
2023-03-17T09:19:20.270Z,995.5
2023-03-17T09:20:36.408Z,995.5
2023-03-17T09:21:52.562Z,995.6
2023-03-17T09:23:08.685Z,995.6
2023-03-17T09:24:24.831Z,995.6
2023-03-17T09:25:40.954Z,995.6
2023-03-17T09:26:57.088Z,995.6
2023-03-17T09:28:13.302Z,995.6
2023-03-17T09:29:28.543Z,995.6
2023-03-17T09:30:43.000Z,995.6
2023-03-17T09:31:59.883Z,995.7
2023-03-17T09:33:16.032Z,995.7
2023-03-17T09:34:32.153Z,995.7
2023-03-17T09:35:48.292Z,995.7
2023-03-17T09:37:04.429Z,995.7
2023-03-17T09:38:20.581Z,995.6
2023-03-17T09:39:36.700Z,995.7
2023-03-17T09:40:52.847Z,995.7
2023-03-17T09:42:08.979Z,995.6
2023-03-17T09:43:25.111Z,995.6
2023-03-17T09:44:41.261Z,995.6
2023-03-17T09:45:57.395Z,995.7
2023-03-17T09:47:13.511Z,995.6
2023-03-17T09:48:29.653Z,995.5
2023-03-17T09:49:45.783Z,995.5
2023-03-17T09:51:01.944Z,995.5
2023-03-17T09:52:18.079Z,995.5
2023-03-17T09:53:34.205Z,995.5
2023-03-17T09:54:50.344Z,995.5
2023-03-17T09:56:06.467Z,995.5
2023-03-17T09:58:38.753Z,995.6
2023-03-17T09:59:54.880Z,995.6
2023-03-17T10:01:11.026Z,995.5
2023-03-17T10:02:27.212Z,995.5
2023-03-17T10:03:42.480Z,995.4
2023-03-17T10:04:57.671Z,995.5
2023-03-17T10:06:13.805Z,995.4
2023-03-17T10:07:29.963Z,995.4
2023-03-17T10:08:46.090Z,995.3
2023-03-17T10:10:02.220Z,995.4
2023-03-17T10:11:18.360Z,995.4
2023-03-17T10:12:34.494Z,995.4
2023-03-17T10:13:50.638Z,995.4
2023-03-17T10:15:06.770Z,995.4
2023-03-17T10:16:22.918Z,995.4
2023-03-17T10:17:39.046Z,995.3
2023-03-17T10:18:55.170Z,995.4
2023-03-17T10:20:11.326Z,995.4
2023-03-17T10:21:27.459Z,995.4
2023-03-17T10:22:43.598Z,995.4
2023-03-17T10:23:59.721Z,995.4
2023-03-17T10:25:15.849Z,995.3
2023-03-17T10:26:32.013Z,995.3
2023-03-17T10:27:48.131Z,995.3
2023-03-17T10:29:04.281Z,995.3
2023-03-17T10:30:20.401Z,995.3
2023-03-17T10:31:36.541Z,995.2
2023-03-17T10:32:52.681Z,995.3
2023-03-17T10:34:08.831Z,995.3
2023-03-17T10:35:24.958Z,995.3
2023-03-17T10:36:41.146Z,995.3
2023-03-17T10:37:56.393Z,995.3
2023-03-17T10:39:12.588Z,995.3
2023-03-17T10:40:27.794Z,995.3
2023-03-17T10:41:43.924Z,995.3
2023-03-17T10:43:00.070Z,995.3
2023-03-17T10:44:16.200Z,995.3
2023-03-17T10:45:32.337Z,995.3
2023-03-17T10:46:48.476Z,995.2
2023-03-17T10:48:04.599Z,995.2
2023-03-17T10:49:20.757Z,995.3
2023-03-17T10:50:36.894Z,995.3
2023-03-17T10:51:53.019Z,995.3
2023-03-17T10:53:09.158Z,995.3
2023-03-17T10:54:25.284Z,995.3
2023-03-17T10:55:41.436Z,995.3
2023-03-17T10:56:57.575Z,995.2
2023-03-17T10:58:13.711Z,995.2
2023-03-17T10:59:29.828Z,995.2
2023-03-17T11:00:45.972Z,995.2
2023-03-17T11:02:02.124Z,995.2
2023-03-17T11:03:18.246Z,995.2
2023-03-17T11:04:34.379Z,995.2
2023-03-17T11:05:50.517Z,995.2
2023-03-17T11:07:06.651Z,995.2
2023-03-17T11:08:22.803Z,995.1
2023-03-17T11:09:38.930Z,995.1
2023-03-17T11:10:55.061Z,995.1
2023-03-17T11:12:11.253Z,995
2023-03-17T11:13:26.493Z,995
2023-03-17T11:14:41.706Z,995
2023-03-17T11:15:56.855Z,995
2023-03-17T11:17:13.009Z,994.9
2023-03-17T11:18:29.131Z,994.9
2023-03-17T11:19:45.269Z,994.9
2023-03-17T11:21:01.415Z,994.9
2023-03-17T11:22:17.540Z,994.8
2023-03-17T11:23:33.695Z,994.8
2023-03-17T11:24:49.824Z,994.8
2023-03-17T11:26:05.953Z,994.8
2023-03-17T11:27:22.088Z,994.8
2023-03-17T11:28:38.226Z,994.8
2023-03-17T11:29:54.364Z,994.8
2023-03-17T11:31:10.501Z,994.8
2023-03-17T11:32:26.641Z,994.8
2023-03-17T11:33:42.773Z,994.8
2023-03-17T11:34:58.913Z,994.7
2023-03-17T11:36:15.059Z,994.7
2023-03-17T11:37:31.180Z,994.7
2023-03-17T11:38:47.321Z,994.7
2023-03-17T11:40:03.451Z,994.7
2023-03-17T11:41:19.588Z,994.7
2023-03-17T11:42:35.739Z,994.7
2023-03-17T11:43:51.871Z,994.7
2023-03-17T11:45:08.004Z,994.7
2023-03-17T11:46:24.130Z,994.7
2023-03-17T11:47:40.266Z,994.8
2023-03-17T11:48:56.425Z,994.7
2023-03-17T11:50:12.545Z,994.7
2023-03-17T11:52:44.811Z,994.7
2023-03-17T11:54:00.962Z,994.6
2023-03-17T11:55:17.105Z,994.7
2023-03-17T11:56:33.239Z,994.7
2023-03-17T11:57:49.366Z,994.7
2023-03-17T11:59:05.492Z,994.7
2023-03-17T12:00:21.627Z,994.6
2023-03-17T12:01:37.790Z,994.6
2023-03-17T12:02:53.967Z,994.6
2023-03-17T12:04:09.218Z,994.6
2023-03-17T12:05:24.424Z,994.6
2023-03-17T12:06:40.546Z,994.7
2023-03-17T12:07:56.680Z,994.6
2023-03-17T12:09:12.814Z,994.7
2023-03-17T12:10:28.965Z,994.6
2023-03-17T12:11:45.110Z,994.6
2023-03-17T12:13:01.242Z,994.6
2023-03-17T12:14:17.000Z,994.6
2023-03-17T12:15:33.494Z,994.6
2023-03-17T12:18:05.792Z,994.6
2023-03-17T12:19:21.914Z,994.6
2023-03-17T12:20:38.054Z,994.6
2023-03-17T12:21:54.191Z,994.6
2023-03-17T12:23:10.309Z,994.6
2023-03-17T12:24:26.456Z,994.6
2023-03-17T12:25:42.595Z,994.6
2023-03-17T12:26:58.727Z,994.6
2023-03-17T12:28:14.855Z,994.6
2023-03-17T12:29:30.988Z,994.6
2023-03-17T12:30:47.142Z,994.6
2023-03-17T12:32:03.281Z,994.6
2023-03-17T12:33:19.420Z,994.6
2023-03-17T12:34:35.544Z,994.6
2023-03-17T12:35:51.687Z,994.5
2023-03-17T12:37:07.881Z,994.5
2023-03-17T12:38:23.126Z,994.5
2023-03-17T12:39:38.338Z,994.4
2023-03-17T12:40:54.482Z,994.4
2023-03-17T12:42:10.619Z,994.4
2023-03-17T12:43:26.754Z,994.4
2023-03-17T12:44:42.885Z,994.4
2023-03-17T12:45:59.005Z,994.4
2023-03-17T12:47:15.162Z,994.4
2023-03-17T12:48:31.294Z,994.4
2023-03-17T12:49:47.421Z,994.4
2023-03-17T12:51:03.565Z,994.4
2023-03-17T12:52:19.703Z,994.4
2023-03-17T12:53:35.841Z,994.4
2023-03-17T12:54:51.973Z,994.4
2023-03-17T12:56:08.119Z,994.3
2023-03-17T12:57:24.246Z,994.3
2023-03-17T12:58:40.380Z,994.3
2023-03-17T12:59:56.535Z,994.3
2023-03-17T13:01:12.667Z,994.3
2023-03-17T13:02:28.802Z,994.3
2023-03-17T13:03:44.922Z,994.3
2023-03-17T13:05:01.058Z,994.3
2023-03-17T13:06:17.217Z,994.4
2023-03-17T13:07:33.345Z,994.3
2023-03-17T13:08:49.482Z,994.3
2023-03-17T13:10:05.610Z,994.3
2023-03-17T13:11:21.810Z,994.3
2023-03-17T13:12:37.041Z,994.2
2023-03-17T13:13:53.228Z,994.2
2023-03-17T13:15:08.437Z,994.2
2023-03-17T13:16:24.583Z,994.2
2023-03-17T13:17:40.722Z,994.2
2023-03-17T13:18:56.856Z,994.1
2023-03-17T13:20:12.989Z,994.2
2023-03-17T13:21:29.122Z,994.2
2023-03-17T13:22:45.273Z,994.1
2023-03-17T13:24:01.388Z,994.1
2023-03-17T13:25:17.531Z,994.2
2023-03-17T13:26:33.664Z,994.1
2023-03-17T13:27:49.791Z,994.1
2023-03-17T13:29:05.949Z,994.1
2023-03-17T13:30:22.085Z,994.1
2023-03-17T13:31:38.218Z,994.1
2023-03-17T13:32:54.345Z,994.1
2023-03-17T13:34:10.487Z,994.1
2023-03-17T13:35:26.628Z,994.2
2023-03-17T13:36:42.755Z,994.2
2023-03-17T13:37:58.897Z,994.2
2023-03-17T13:39:15.031Z,994.2
2023-03-17T13:40:31.166Z,994.2
2023-03-17T13:41:47.303Z,994.2
2023-03-17T13:43:03.448Z,994.2
2023-03-17T13:44:19.567Z,994.2
2023-03-17T13:45:35.716Z,994.2
2023-03-17T13:46:51.898Z,994.2
2023-03-17T13:48:07.150Z,994.2
2023-03-17T13:49:22.338Z,994.2
2023-03-17T13:50:38.471Z,994.2
2023-03-17T13:51:54.632Z,994.2
2023-03-17T13:53:10.765Z,994.1
2023-03-17T13:54:26.900Z,994.1
2023-03-17T13:55:43.026Z,994.1
2023-03-17T13:56:59.154Z,994.1
2023-03-17T13:58:15.320Z,994.1
2023-03-17T13:59:31.435Z,994.1
2023-03-17T14:00:47.571Z,994.1
2023-03-17T14:02:03.718Z,994
2023-03-17T14:03:19.837Z,994
2023-03-17T14:04:36.001Z,994
2023-03-17T14:05:52.129Z,994
2023-03-17T14:07:08.255Z,994
2023-03-17T14:08:24.398Z,994
2023-03-17T14:09:40.526Z,994
2023-03-17T14:10:56.680Z,993.9
2023-03-17T14:12:12.800Z,993.9
2023-03-17T14:13:28.934Z,993.9
2023-03-17T14:14:45.069Z,993.9
2023-03-17T14:16:01.207Z,993.9
2023-03-17T14:17:17.346Z,993.8
2023-03-17T14:18:33.485Z,993.9
2023-03-17T14:19:49.614Z,993.9
2023-03-17T14:21:05.814Z,993.9
2023-03-17T14:22:21.070Z,993.8
2023-03-17T14:23:36.279Z,993.8
2023-03-17T14:24:51.433Z,993.8
2023-03-17T14:26:07.576Z,993.8
2023-03-17T14:27:23.707Z,993.8
2023-03-17T14:28:39.843Z,993.8
2023-03-17T14:29:55.972Z,993.8
2023-03-17T14:31:12.117Z,993.9
2023-03-17T14:32:28.258Z,993.9
2023-03-17T14:33:44.383Z,993.9
2023-03-17T14:35:00.526Z,993.8
2023-03-17T14:36:16.656Z,993.9
2023-03-17T14:37:32.791Z,993.9
2023-03-17T14:38:48.942Z,993.9
2023-03-17T14:40:05.069Z,993.9
2023-03-17T14:41:21.204Z,993.9
2023-03-17T14:42:37.344Z,993.9
2023-03-17T14:43:53.466Z,993.9
2023-03-17T14:45:09.627Z,993.9
2023-03-17T14:46:25.757Z,993.9
2023-03-17T14:47:41.894Z,993.9
2023-03-17T14:48:58.021Z,993.9
2023-03-17T14:50:14.157Z,993.9
2023-03-17T14:51:30.303Z,993.9
2023-03-17T14:52:46.431Z,993.9
2023-03-17T14:54:02.569Z,993.9
2023-03-17T14:55:18.697Z,993.9
2023-03-17T14:56:34.833Z,993.8
2023-03-17T14:57:50.986Z,993.8
2023-03-17T14:59:07.117Z,993.8
2023-03-17T15:00:23.249Z,993.7
2023-03-17T15:01:39.382Z,993.7
2023-03-17T15:02:55.504Z,993.7
2023-03-17T15:04:11.665Z,993.7
2023-03-17T15:05:27.783Z,993.7
2023-03-17T15:06:43.932Z,993.7
2023-03-17T15:08:00.050Z,993.7
2023-03-17T15:09:16.189Z,993.7
2023-03-17T15:10:32.338Z,993.7
2023-03-17T15:11:48.532Z,993.8
2023-03-17T15:13:03.764Z,993.7
2023-03-17T15:14:19.046Z,993.7
2023-03-17T15:15:34.285Z,993.7
2023-03-17T15:16:49.484Z,993.7
2023-03-17T15:18:05.625Z,993.7
2023-03-17T15:19:21.773Z,993.7
2023-03-17T15:20:37.891Z,993.7
2023-03-17T15:21:54.022Z,993.7
2023-03-17T15:23:10.166Z,993.7
2023-03-17T15:24:26.313Z,993.7
2023-03-17T15:25:42.439Z,993.6
2023-03-17T15:26:58.569Z,993.6
2023-03-17T15:28:14.704Z,993.6
2023-03-17T15:29:30.839Z,993.6
2023-03-17T15:30:47.002Z,993.6
2023-03-17T15:32:03.135Z,993.6
2023-03-17T15:33:19.267Z,993.6
2023-03-17T15:34:35.397Z,993.6
2023-03-17T15:35:51.535Z,993.6
2023-03-17T15:37:07.668Z,993.6
2023-03-17T15:38:23.805Z,993.6
2023-03-17T15:39:39.942Z,993.5
2023-03-17T15:40:56.081Z,993.5
2023-03-17T15:42:12.215Z,993.6
2023-03-17T15:43:28.349Z,993.5
2023-03-17T15:44:44.488Z,993.6
2023-03-17T15:46:00.631Z,993.5
2023-03-17T15:47:16.758Z,993.5
2023-03-17T15:48:32.944Z,993.5
2023-03-17T15:49:48.164Z,993.5
2023-03-17T15:51:04.285Z,993.5
2023-03-17T15:52:20.430Z,993.5
2023-03-17T15:53:36.567Z,993.5
2023-03-17T15:54:52.712Z,993.5
2023-03-17T15:56:08.831Z,993.5
2023-03-17T15:57:24.969Z,993.5
2023-03-17T15:58:41.098Z,993.5
2023-03-17T15:59:57.234Z,993.5
2023-03-17T16:01:13.388Z,993.4
2023-03-17T16:02:29.519Z,993.5
2023-03-17T16:03:45.660Z,993.5
2023-03-17T16:05:01.782Z,993.4
2023-03-17T16:06:17.932Z,993.4
2023-03-17T16:07:34.076Z,993.4
2023-03-17T16:08:50.198Z,993.5
2023-03-17T16:10:06.338Z,993.5
2023-03-17T16:11:22.468Z,993.4
2023-03-17T16:12:38.603Z,993.4
2023-03-17T16:13:54.747Z,993.5
2023-03-17T16:15:10.881Z,993.5
2023-03-17T16:16:27.033Z,993.5
2023-03-17T16:17:43.146Z,993.4
2023-03-17T16:18:59.275Z,993.4
2023-03-17T16:20:15.438Z,993.4
2023-03-17T16:21:31.616Z,993.4
2023-03-17T16:22:46.861Z,993.4
2023-03-17T16:24:02.078Z,993.5
2023-03-17T16:25:18.210Z,993.4
2023-03-17T16:26:34.329Z,993.4
2023-03-17T16:27:50.468Z,993.4
2023-03-17T16:29:06.606Z,993.3
2023-03-17T16:30:22.756Z,993.3
2023-03-17T16:31:38.880Z,993.2
2023-03-17T16:32:55.015Z,993.3
2023-03-17T16:34:11.156Z,993.3